Time;durP1;ratioP1;P1;durP2;ratioP2;P2;SDS_P1;SDS_P2;PMS_P1;PMS_P2;Temp;Humidity;BMP_temperature;BMP_pressure;BME280_temperature;BME280_humidity;BME280_pressure;Samples;Min_cycle;Max_cycle;Signal;HPM_P1;HPM_P2
2021/12/24 00:00:52;;;;;;;7.13;6.43;;;10.50;92.40;;;;;;958924;149;27309;-80
2021/12/24 00:03:18;;;;;;;6.27;5.67;;;10.60;92.50;;;;;;953640;150;27302;-80
2021/12/24 00:05:45;;;;;;;9.27;6.63;;;10.60;92.50;;;;;;945514;150;27938;-80
2021/12/24 00:08:12;;;;;;;8.00;6.37;;;10.60;92.60;;;;;;954100;149;27281;-80
2021/12/24 00:10:38;;;;;;;10.77;6.47;;;10.60;92.60;;;;;;954980;150;27273;-80
2021/12/24 00:13:10;;;;;;;8.73;6.53;;;10.60;92.70;;;;;;957146;150;27432;-80
2021/12/24 00:15:50;;;;;;;8.83;6.50;;;10.70;92.70;;;;;;949268;149;27351;-80
2021/12/24 00:18:07;;;;;;;7.60;6.47;;;10.60;92.80;;;;;;961194;148;27272;-80
2021/12/24 00:21:23;;;;;;;9.80;6.87;;;10.70;92.90;;;;;;950166;150;27410;-80
2021/12/24 00:36:28;;;;;;;7.23;6.20;;;10.70;93.20;;;;;;960871;149;27394;-81
2021/12/24 00:38:57;;;;;;;7.33;6.30;;;10.60;93.20;;;;;;962972;146;27465;-80
2021/12/24 00:41:24;;;;;;;7.40;5.93;;;10.70;93.30;;;;;;955168;148;27443;-81
2021/12/24 00:43:50;;;;;;;6.80;6.07;;;10.60;93.40;;;;;;957187;148;27414;-80
2021/12/24 00:46:17;;;;;;;8.30;6.33;;;10.60;93.50;;;;;;956512;146;27363;-80
2021/12/24 00:48:45;;;;;;;8.67;6.07;;;10.60;93.50;;;;;;975933;146;27366;-81
2021/12/24 00:51:23;;;;;;;7.03;6.00;;;10.70;93.60;;;;;;966996;146;27391;-80
2021/12/24 00:56:12;;;;;;;6.40;5.90;;;10.70;93.70;;;;;;965109;147;27294;-80
2021/12/24 00:58:41;;;;;;;8.53;6.37;;;10.70;93.70;;;;;;953398;149;27342;-80
2021/12/24 01:01:08;;;;;;;7.73;5.97;;;10.70;93.70;;;;;;947217;148;27421;-80
2021/12/24 01:03:34;;;;;;;7.63;5.90;;;10.70;93.80;;;;;;972577;146;27330;-80
2021/12/24 01:06:01;;;;;;;6.70;5.90;;;10.70;93.80;;;;;;962617;146;27263;-80
2021/12/24 01:08:27;;;;;;;7.10;5.53;;;10.70;93.90;;;;;;967769;146;27361;-80
2021/12/24 01:10:54;;;;;;;7.30;6.33;;;10.70;93.80;;;;;;962982;149;27395;-80
2021/12/24 01:13:20;;;;;;;7.33;6.27;;;10.70;93.90;;;;;;959661;146;27299;-80
2021/12/24 01:15:56;;;;;;;6.50;5.87;;;10.80;94.00;;;;;;968016;146;27256;-80
2021/12/24 01:18:31;;;;;;;7.57;6.33;;;10.70;94.00;;;;;;970118;146;27430;-80
2021/12/24 01:20:57;;;;;;;6.97;5.60;;;10.70;93.90;;;;;;966070;146;27297;-80
2021/12/24 01:23:33;;;;;;;7.10;5.63;;;10.70;94.00;;;;;;970094;146;27408;-80
2021/12/24 01:26:04;;;;;;;6.57;5.87;;;10.70;94.00;;;;;;957644;145;27311;-80
2021/12/24 01:28:38;;;;;;;7.13;5.93;;;10.80;94.00;;;;;;957172;146;27323;-81
2021/12/24 01:39:19;;;;;;;6.53;5.70;;;10.70;93.90;;;;;;964059;147;27483;-81
2021/12/24 01:44:27;;;;;;;7.50;5.60;;;10.70;94.00;;;;;;961737;147;27543;-81
2021/12/24 01:46:50;;;;;;;6.63;5.90;;;10.80;94.00;;;;;;964128;148;27796;-81
2021/12/24 01:49:16;;;;;;;7.50;5.93;;;10.80;94.10;;;;;;950453;148;27321;-81
2021/12/24 01:51:43;;;;;;;6.50;5.73;;;10.80;94.00;;;;;;964201;149;27441;-81
2021/12/24 01:54:11;;;;;;;6.70;5.43;;;10.80;94.10;;;;;;963866;148;27382;-80
2021/12/24 01:56:36;;;;;;;6.97;6.23;;;10.80;94.00;;;;;;966415;147;27368;-80
2021/12/24 01:59:03;;;;;;;6.70;5.30;;;10.80;94.00;;;;;;964273;147;27400;-80
2021/12/24 02:01:29;;;;;;;6.17;5.57;;;10.80;94.10;;;;;;957694;149;27443;-81
2021/12/24 02:03:58;;;;;;;5.80;5.20;;;10.90;94.10;;;;;;963211;148;28117;-80
2021/12/24 02:06:25;;;;;;;6.33;5.63;;;10.90;94.10;;;;;;953498;148;27415;-81
2021/12/24 02:08:52;;;;;;;7.70;6.17;;;10.90;94.10;;;;;;965222;146;27782;-81
2021/12/24 02:11:21;;;;;;;6.87;6.17;;;10.90;94.10;;;;;;960897;147;27287;-80
2021/12/24 02:13:48;;;;;;;7.17;6.47;;;10.90;94.10;;;;;;963132;149;28249;-81
2021/12/24 02:16:41;;;;;;;7.50;6.00;;;10.90;93.80;;;;;;964357;149;27283;-81
2021/12/24 02:28:17;;;;;;;7.60;6.53;;;10.90;94.10;;;;;;965403;148;27443;-81
2021/12/24 02:29:36;;;;;;;6.60;5.87;;;10.90;94.40;;;;;;969272;148;27420;-81
2021/12/24 02:32:03;;;;;;;6.50;5.77;;;10.90;94.30;;;;;;976246;145;27340;-81
2021/12/24 02:34:29;;;;;;;6.10;5.33;;;10.90;94.50;;;;;;975627;145;27278;-81
2021/12/24 02:36:56;;;;;;;6.07;5.40;;;10.90;94.60;;;;;;970834;146;27405;-81
2021/12/24 02:39:23;;;;;;;5.97;5.37;;;10.90;94.70;;;;;;972812;145;27439;-81
2021/12/24 02:41:49;;;;;;;6.17;5.57;;;10.90;94.70;;;;;;968705;147;27310;-81
2021/12/24 02:44:16;;;;;;;5.73;4.97;;;10.90;94.80;;;;;;971635;145;27359;-81
2021/12/24 02:47:11;;;;;;;6.23;5.50;;;11.00;94.80;;;;;;970159;148;27613;-80
2021/12/24 02:49:14;;;;;;;7.53;5.30;;;11.00;94.80;;;;;;966647;146;27311;-80
2021/12/24 02:54:20;;;;;;;13.60;5.87;;;11.10;94.80;;;;;;965609;148;27446;-80
2021/12/24 02:56:53;;;;;;;8.00;5.63;;;11.10;94.70;;;;;;968422;145;27220;-80
2021/12/24 02:59:18;;;;;;;6.60;5.70;;;11.10;94.60;;;;;;964772;145;27897;-80
2021/12/24 03:01:43;;;;;;;6.03;5.43;;;11.10;94.30;;;;;;967187;145;27294;-80
2021/12/24 03:04:09;;;;;;;6.10;5.50;;;11.20;94.60;;;;;;961286;148;27266;-80
2021/12/24 03:06:36;;;;;;;6.47;5.63;;;11.20;94.60;;;;;;962117;146;27288;-80
2021/12/24 03:09:04;;;;;;;8.27;5.73;;;11.20;94.50;;;;;;971346;147;27319;-80
2021/12/24 03:11:29;;;;;;;7.67;5.93;;;11.20;94.50;;;;;;969363;145;27412;-80
2021/12/24 03:13:56;;;;;;;6.13;5.17;;;11.20;94.50;;;;;;971752;147;27286;-80
2021/12/24 03:16:22;;;;;;;5.83;5.23;;;11.20;94.40;;;;;;971867;147;27437;-80
2021/12/24 03:18:49;;;;;;;5.63;5.13;;;11.20;94.40;;;;;;971553;148;27394;-80
2021/12/24 03:21:25;;;;;;;5.87;5.13;;;11.30;94.30;;;;;;971037;147;27359;-80
2021/12/24 03:24:33;;;;;;;7.27;5.17;;;11.30;94.30;;;;;;971800;145;27370;-80
2021/12/24 03:26:14;;;;;;;6.50;5.77;;;11.30;94.20;;;;;;968482;145;27269;-80
2021/12/24 03:28:40;;;;;;;6.40;5.13;;;11.40;94.50;;;;;;970558;145;27800;-80
2021/12/24 03:31:07;;;;;;;6.03;5.33;;;11.30;94.00;;;;;;966687;146;27300;-80
2021/12/24 03:33:33;;;;;;;5.93;4.97;;;11.40;94.00;;;;;;970628;145;27298;-81
2021/12/24 03:36:02;;;;;;;6.10;5.30;;;11.40;94.00;;;;;;972462;146;27754;-81
2021/12/24 03:38:29;;;;;;;5.40;4.90;;;11.40;93.90;;;;;;962597;149;27427;-80
2021/12/24 03:40:56;;;;;;;6.13;5.53;;;11.40;93.90;;;;;;953475;146;27316;-80
2021/12/24 03:43:22;;;;;;;5.17;4.73;;;11.40;93.80;;;;;;959039;148;27304;-80
2021/12/24 03:45:59;;;;;;;6.77;5.17;;;11.40;93.80;;;;;;968323;146;27626;-80
2021/12/24 03:48:28;;;;;;;5.50;5.00;;;11.50;93.80;;;;;;958084;149;27295;-80
2021/12/24 03:50:59;;;;;;;5.70;5.17;;;11.50;93.80;;;;;;959716;146;27311;-81
2021/12/24 03:56:02;;;;;;;5.57;4.97;;;11.50;93.70;;;;;;970771;146;27292;-81
2021/12/24 03:58:29;;;;;;;5.80;5.20;;;11.50;93.60;;;;;;966807;145;27295;-81
2021/12/24 04:00:55;;;;;;;5.70;5.10;;;11.50;93.60;;;;;;947851;149;27276;-82
2021/12/24 04:03:22;;;;;;;5.80;4.80;;;11.50;93.50;;;;;;970011;146;27342;-81
2021/12/24 04:05:48;;;;;;;5.67;4.93;;;11.50;93.50;;;;;;963290;149;27287;-81
2021/12/24 04:08:15;;;;;;;7.50;5.13;;;11.60;93.50;;;;;;979206;146;27343;-81
2021/12/24 04:10:41;;;;;;;5.30;4.63;;;11.60;93.50;;;;;;968703;146;27409;-82
2021/12/24 04:13:08;;;;;;;6.07;5.13;;;11.50;93.40;;;;;;966518;146;27347;-82
2021/12/24 04:15:35;;;;;;;5.77;5.17;;;11.60;93.40;;;;;;964725;146;27429;-82
2021/12/24 04:18:01;;;;;;;5.50;4.97;;;11.60;93.40;;;;;;968262;145;27271;-82
2021/12/24 04:25:57;;;;;;;5.00;4.50;;;11.60;93.20;;;;;;976212;145;27319;-81
2021/12/24 04:28:24;;;;;;;5.33;4.83;;;11.60;93.20;;;;;;955454;146;27546;-82
2021/12/24 04:30:52;;;;;;;5.70;5.07;;;11.60;93.20;;;;;;960442;148;27407;-82
2021/12/24 04:33:25;;;;;;;6.83;4.50;;;11.60;93.30;;;;;;963223;148;27322;-82
2021/12/24 04:35:56;;;;;;;6.57;5.17;;;11.50;93.20;;;;;;962709;146;27283;-82
2021/12/24 04:38:32;;;;;;;4.47;4.07;;;11.50;93.20;;;;;;955549;149;27379;-82
2021/12/24 04:51:39;;;;;;;5.37;4.87;;;11.50;93.20;;;;;;966469;148;27733;-83
2021/12/24 05:04:50;;;;;;;5.97;4.93;;;11.40;93.50;;;;;;968090;148;27279;-81
2021/12/24 05:07:15;;;;;;;5.30;4.80;;;11.40;93.60;;;;;;972243;146;27287;-81
2021/12/24 05:09:32;;;;;;;6.90;5.30;;;11.40;93.60;;;;;;961687;146;27299;-81
2021/12/24 05:11:58;;;;;;;6.23;5.63;;;11.40;93.70;;;;;;963242;146;27278;-81
2021/12/24 05:14:27;;;;;;;7.53;5.47;;;11.40;93.70;;;;;;978067;146;27288;-81
2021/12/24 05:17:03;;;;;;;6.60;5.90;;;11.40;93.70;;;;;;981991;146;27241;-81
2021/12/24 05:22:02;;;;;;;8.20;5.90;;;11.50;93.80;;;;;;964505;146;29170;-82
2021/12/24 05:24:30;;;;;;;6.57;5.17;;;11.50;93.80;;;;;;966080;146;27460;-82
2021/12/24 05:26:58;;;;;;;6.87;5.27;;;11.50;93.80;;;;;;962499;149;27244;-82
2021/12/24 05:29:25;;;;;;;6.87;5.77;;;11.50;93.80;;;;;;966355;146;27377;-82
2021/12/24 05:31:52;;;;;;;6.60;6.00;;;11.50;93.80;;;;;;972073;145;27347;-82
2021/12/24 05:34:18;;;;;;;6.30;5.70;;;11.50;93.80;;;;;;968743;145;27358;-82
2021/12/24 05:36:45;;;;;;;6.80;6.10;;;11.50;93.80;;;;;;972286;145;27286;-82
2021/12/24 05:39:11;;;;;;;6.67;5.93;;;11.50;93.90;;;;;;966384;146;27370;-82
2021/12/24 05:41:38;;;;;;;6.93;5.97;;;11.50;93.90;;;;;;963010;147;27368;-82
2021/12/24 05:44:05;;;;;;;7.20;5.70;;;11.50;93.90;;;;;;959638;148;27410;-82
2021/12/24 05:46:31;;;;;;;7.63;6.27;;;11.50;93.80;;;;;;965387;148;27394;-82
2021/12/24 05:48:58;;;;;;;6.53;5.70;;;11.60;93.90;;;;;;966303;148;27332;-82
2021/12/24 05:51:24;;;;;;;7.43;5.80;;;11.60;93.90;;;;;;974487;145;27376;-82
2021/12/24 05:53:51;;;;;;;7.43;6.50;;;11.60;93.90;;;;;;978711;145;27304;-82
2021/12/24 05:56:17;;;;;;;6.80;6.07;;;11.60;93.90;;;;;;968104;146;27360;-82
2021/12/24 05:58:44;;;;;;;9.87;6.93;;;11.60;93.90;;;;;;968247;146;27404;-82
2021/12/24 06:01:11;;;;;;;6.33;5.53;;;11.60;93.90;;;;;;969662;146;27228;-82
2021/12/24 06:03:37;;;;;;;6.37;5.73;;;11.50;93.90;;;;;;967476;146;27294;-82
2021/12/24 06:06:04;;;;;;;6.77;6.00;;;11.60;93.90;;;;;;960723;148;27393;-82
2021/12/24 06:08:30;;;;;;;5.93;5.43;;;11.60;93.90;;;;;;956991;148;27284;-82
2021/12/24 06:10:57;;;;;;;7.67;6.50;;;11.50;93.90;;;;;;961726;146;27444;-82
2021/12/24 06:13:28;;;;;;;7.57;6.47;;;11.50;93.90;;;;;;968557;146;27283;-82
2021/12/24 06:15:59;;;;;;;7.73;6.53;;;11.60;93.90;;;;;;967945;148;27306;-82
2021/12/24 06:18:27;;;;;;;7.53;6.43;;;11.60;94.00;;;;;;975413;146;27754;-82
2021/12/24 06:20:52;;;;;;;8.07;6.57;;;11.60;93.90;;;;;;967708;145;27308;-83
2021/12/24 06:23:20;;;;;;;7.50;6.63;;;11.50;93.60;;;;;;968327;148;27302;-83
2021/12/24 06:25:45;;;;;;;9.33;7.43;;;11.50;93.90;;;;;;969484;145;27297;-83
2021/12/24 06:28:12;;;;;;;9.60;6.87;;;11.50;93.90;;;;;;968146;146;27270;-83
2021/12/24 06:30:39;;;;;;;8.83;7.07;;;11.50;94.00;;;;;;971500;146;27324;-83
2021/12/24 06:33:05;;;;;;;10.37;7.43;;;11.50;94.00;;;;;;959835;149;27725;-83
2021/12/24 06:35:32;;;;;;;7.37;6.63;;;11.60;94.00;;;;;;951348;149;27260;-83
2021/12/24 06:37:58;;;;;;;7.40;6.60;;;11.50;94.00;;;;;;954211;149;27376;-83
2021/12/24 06:40:25;;;;;;;8.40;7.00;;;11.50;94.00;;;;;;959242;148;27327;-83
2021/12/24 06:42:54;;;;;;;8.60;7.43;;;11.50;94.00;;;;;;947269;149;27304;-83
2021/12/24 06:45:24;;;;;;;9.93;7.60;;;11.50;94.00;;;;;;959596;147;27812;-82
2021/12/24 06:47:47;;;;;;;8.67;7.00;;;11.50;94.00;;;;;;957227;149;27424;-82
2021/12/24 06:50:14;;;;;;;8.63;7.13;;;11.50;94.00;;;;;;960097;149;27396;-82
2021/12/24 06:52:40;;;;;;;8.23;7.40;;;11.50;94.00;;;;;;946332;149;27314;-82
2021/12/24 06:55:08;;;;;;;9.27;7.20;;;11.50;94.10;;;;;;958509;148;27283;-82
2021/12/24 06:57:33;;;;;;;9.73;7.50;;;11.50;94.10;;;;;;958243;149;27360;-82
2021/12/24 07:00:00;;;;;;;7.37;6.73;;;11.40;94.10;;;;;;958999;149;27360;-82
2021/12/24 07:02:27;;;;;;;7.60;6.20;;;11.40;94.20;;;;;;958287;149;27412;-82
2021/12/24 07:04:53;;;;;;;9.23;7.53;;;11.40;94.20;;;;;;956098;148;27397;-82
2021/12/24 07:07:20;;;;;;;10.93;7.80;;;11.40;94.30;;;;;;962081;148;27385;-82
2021/12/24 07:09:49;;;;;;;9.90;7.40;;;11.40;94.30;;;;;;959314;149;27264;-82
2021/12/24 07:12:16;;;;;;;13.00;7.53;;;11.40;94.30;;;;;;959310;146;27369;-82
2021/12/24 07:14:42;;;;;;;9.13;6.63;;;11.40;94.30;;;;;;958587;148;27302;-82
2021/12/24 07:17:09;;;;;;;8.43;7.53;;;11.40;94.30;;;;;;954322;148;27341;-82
2021/12/24 07:19:35;;;;;;;11.00;8.43;;;11.40;94.40;;;;;;948917;149;27364;-82
2021/12/24 07:22:02;;;;;;;10.47;8.53;;;11.40;94.40;;;;;;959491;148;27276;-82
2021/12/24 07:24:29;;;;;;;9.53;7.57;;;11.40;94.40;;;;;;958352;149;27293;-82
2021/12/24 07:26:55;;;;;;;10.17;8.10;;;11.40;94.50;;;;;;958579;149;27262;-82
2021/12/24 07:29:22;;;;;;;9.63;8.20;;;11.40;94.50;;;;;;957788;148;27701;-82
2021/12/24 07:31:48;;;;;;;9.00;8.07;;;11.40;94.50;;;;;;960515;146;27359;-82
2021/12/24 07:34:15;;;;;;;9.67;8.03;;;11.40;94.50;;;;;;964151;145;27301;-82
2021/12/24 07:36:45;;;;;;;8.80;7.90;;;11.40;94.50;;;;;;966058;145;27306;-82
2021/12/24 07:39:11;;;;;;;9.67;7.63;;;11.40;94.90;;;;;;956042;146;27295;-82
2021/12/24 07:41:38;;;;;;;8.37;7.57;;;11.40;94.60;;;;;;955451;146;27303;-82
2021/12/24 07:44:04;;;;;;;10.07;7.70;;;11.40;94.60;;;;;;962398;146;27400;-82
2021/12/24 07:46:38;;;;;;;9.43;8.13;;;11.40;94.60;;;;;;961935;145;27361;-82
2021/12/24 07:49:11;;;;;;;8.67;7.67;;;11.40;94.70;;;;;;965466;146;27316;-82
2021/12/24 07:54:11;;;;;;;9.73;7.27;;;11.40;94.80;;;;;;970169;146;27993;-83
2021/12/24 07:56:38;;;;;;;8.87;7.50;;;11.40;94.70;;;;;;952294;146;27269;-83
2021/12/24 07:59:05;;;;;;;9.73;7.80;;;11.40;94.70;;;;;;967743;146;27424;-83
2021/12/24 08:01:31;;;;;;;10.40;7.63;;;11.40;94.80;;;;;;963507;149;27295;-83
2021/12/24 08:03:58;;;;;;;8.80;7.90;;;11.50;94.80;;;;;;971289;146;27284;-81
2021/12/24 08:06:24;;;;;;;8.80;7.43;;;11.40;94.80;;;;;;964455;146;27295;-81
2021/12/24 08:08:51;;;;;;;8.77;7.03;;;11.50;94.80;;;;;;966038;146;27240;-82
2021/12/24 08:11:18;;;;;;;7.47;6.70;;;11.50;94.80;;;;;;965301;146;27351;-82
2021/12/24 08:13:44;;;;;;;7.50;6.73;;;11.50;94.80;;;;;;974867;146;27311;-82
2021/12/24 08:16:12;;;;;;;7.63;6.77;;;11.50;94.80;;;;;;957443;145;27870;-82
2021/12/24 08:18:37;;;;;;;8.83;7.37;;;11.50;94.80;;;;;;968506;145;27334;-83
2021/12/24 08:21:04;;;;;;;8.00;6.40;;;11.60;94.80;;;;;;957453;146;27391;-83
2021/12/24 08:23:30;;;;;;;6.87;6.10;;;11.60;94.90;;;;;;969032;143;27300;-82
2021/12/24 08:25:59;;;;;;;8.57;6.87;;;11.60;94.90;;;;;;966139;145;27373;-82
2021/12/24 08:28:24;;;;;;;8.37;7.43;;;11.60;94.90;;;;;;965343;146;27270;-83
2021/12/24 08:30:50;;;;;;;7.53;6.83;;;11.60;94.90;;;;;;966654;146;27307;-82
2021/12/24 08:33:17;;;;;;;6.63;5.87;;;11.70;94.90;;;;;;964577;145;27342;-82
2021/12/24 08:35:43;;;;;;;7.53;6.60;;;11.70;94.80;;;;;;958458;146;27329;-82
2021/12/24 08:38:10;;;;;;;7.67;6.50;;;11.70;94.80;;;;;;959981;148;27686;-82
2021/12/24 08:40:39;;;;;;;7.63;6.83;;;11.80;94.70;;;;;;970221;146;27424;-83
2021/12/24 08:43:06;;;;;;;7.13;6.43;;;11.80;94.60;;;;;;972481;146;27283;-83
2021/12/24 08:45:33;;;;;;;8.40;5.80;;;11.80;94.50;;;;;;964651;149;27392;-83
2021/12/24 08:47:59;;;;;;;7.87;7.07;;;11.90;94.50;;;;;;965288;149;27397;-83
2021/12/24 08:50:26;;;;;;;8.47;6.97;;;11.90;94.40;;;;;;975916;146;27261;-83
2021/12/24 08:52:52;;;;;;;7.23;6.10;;;11.90;94.40;;;;;;965100;146;27278;-83
2021/12/24 08:55:19;;;;;;;8.30;6.30;;;11.90;94.30;;;;;;963569;149;27350;-83
2021/12/24 08:57:46;;;;;;;6.73;6.00;;;11.90;94.50;;;;;;972618;146;27333;-83
2021/12/24 09:00:12;;;;;;;6.93;6.17;;;11.90;94.30;;;;;;970128;146;27242;-83
2021/12/24 09:02:39;;;;;;;7.63;5.67;;;11.90;94.20;;;;;;963881;146;27245;-83
2021/12/24 09:05:05;;;;;;;6.33;5.53;;;11.90;94.10;;;;;;964874;146;27327;-83
2021/12/24 09:07:32;;;;;;;9.13;6.10;;;11.90;94.10;;;;;;961985;148;27322;-83
2021/12/24 09:09:59;;;;;;;6.67;5.70;;;12.00;94.10;;;;;;966255;146;27259;-83
2021/12/24 09:12:25;;;;;;;6.33;5.73;;;11.90;94.10;;;;;;961191;149;27294;-83
2021/12/24 09:14:53;;;;;;;7.53;5.90;;;12.00;94.10;;;;;;967173;146;27277;-82
2021/12/24 09:17:18;;;;;;;7.30;6.10;;;11.90;94.10;;;;;;967107;146;27278;-82
2021/12/24 09:19:48;;;;;;;10.23;6.30;;;12.00;94.20;;;;;;961219;146;27342;-82
2021/12/24 09:22:16;;;;;;;6.20;5.60;;;12.00;94.30;;;;;;959228;146;27293;-83
2021/12/24 09:24:38;;;;;;;7.40;6.20;;;12.10;94.40;;;;;;968740;146;27410;-83
2021/12/24 09:27:05;;;;;;;5.93;5.33;;;12.10;94.40;;;;;;944432;149;27420;-83
2021/12/24 09:29:31;;;;;;;8.97;5.80;;;12.20;94.40;;;;;;976873;146;27429;-83
2021/12/24 09:31:58;;;;;;;7.13;5.83;;;12.30;94.50;;;;;;980531;146;27295;-82
2021/12/24 09:34:24;;;;;;;6.53;5.87;;;12.30;94.50;;;;;;979648;145;27417;-82
2021/12/24 09:36:51;;;;;;;6.23;5.63;;;12.40;94.40;;;;;;966660;145;27248;-83
2021/12/24 09:39:18;;;;;;;5.83;5.33;;;12.40;94.40;;;;;;973316;145;27382;-83
2021/12/24 09:41:44;;;;;;;5.73;5.07;;;12.50;94.40;;;;;;980213;145;27356;-83
2021/12/24 09:44:11;;;;;;;5.90;5.30;;;12.60;94.40;;;;;;971259;145;27309;-83
2021/12/24 09:46:42;;;;;;;6.50;5.77;;;12.70;94.20;;;;;;980945;145;27262;-83
2021/12/24 09:49:04;;;;;;;7.67;5.73;;;12.80;94.10;;;;;;976990;142;27243;-83
2021/12/24 09:51:31;;;;;;;6.00;5.40;;;12.90;94.00;;;;;;969694;145;27348;-83
2021/12/24 09:53:57;;;;;;;8.88;5.60;;;13.00;93.80;;;;;;972706;145;27421;-83
2021/12/24 09:56:27;;;;;;;6.17;5.10;;;13.00;93.60;;;;;;972815;145;27230;-83
2021/12/24 09:58:56;;;;;;;6.00;4.70;;;13.10;93.40;;;;;;975549;145;27280;-83
2021/12/24 10:01:32;;;;;;;7.20;5.10;;;13.10;93.10;;;;;;982430;145;27417;-83
2021/12/24 10:04:02;;;;;;;6.50;5.33;;;13.20;93.00;;;;;;979689;145;27277;-83
2021/12/24 10:06:28;;;;;;;5.57;4.90;;;13.20;92.90;;;;;;970539;148;27254;-83
2021/12/24 10:09:01;;;;;;;8.43;4.93;;;13.20;92.50;;;;;;974651;145;27252;-83
2021/12/24 10:11:31;;;;;;;6.40;4.65;;;13.30;92.70;;;;;;974998;145;27436;-83
2021/12/24 10:13:57;;;;;;;6.23;5.03;;;13.30;92.60;;;;;;971521;147;27293;-83
2021/12/24 10:16:25;;;;;;;5.83;4.57;;;13.30;92.50;;;;;;967980;148;27340;-83
2021/12/24 10:18:50;;;;;;;6.90;4.43;;;13.30;92.40;;;;;;967092;145;27438;-84
2021/12/24 10:21:25;;;;;;;6.73;4.97;;;13.40;92.40;;;;;;971312;145;27379;-83
2021/12/24 10:24:03;;;;;;;4.83;4.43;;;13.40;92.30;;;;;;960927;148;27808;-84
2021/12/24 10:26:32;;;;;;;4.57;4.23;;;13.40;92.20;;;;;;957803;148;27377;-83
2021/12/24 10:29:04;;;;;;;5.53;4.17;;;13.40;92.10;;;;;;968319;145;27257;-83
2021/12/24 10:31:33;;;;;;;5.63;4.50;;;13.50;92.10;;;;;;966568;145;27267;-83
2021/12/24 10:34:08;;;;;;;4.53;4.03;;;13.50;91.80;;;;;;961923;145;27750;-83
2021/12/24 10:36:57;;;;;;;5.07;4.07;;;13.50;91.60;;;;;;967428;146;27395;-83
2021/12/24 10:39:22;;;;;;;4.57;4.17;;;13.50;91.50;;;;;;957781;146;27293;-83
2021/12/24 10:41:49;;;;;;;4.67;4.20;;;13.60;91.50;;;;;;956164;149;27284;-83
2021/12/24 10:44:16;;;;;;;5.97;4.20;;;13.60;91.40;;;;;;956559;146;27423;-83
2021/12/24 10:46:42;;;;;;;6.30;4.30;;;13.60;91.40;;;;;;960682;146;27376;-83
2021/12/24 10:49:18;;;;;;;5.97;4.27;;;13.60;91.10;;;;;;953895;149;27286;-83
2021/12/24 10:51:59;;;;;;;5.13;4.63;;;13.60;91.00;;;;;;954874;146;27288;-83
2021/12/24 10:54:23;;;;;;;4.93;4.43;;;13.60;90.90;;;;;;961945;149;27289;-82
2021/12/24 10:56:50;;;;;;;5.57;4.63;;;13.60;90.80;;;;;;953702;146;27366;-82
2021/12/24 10:59:17;;;;;;;5.90;4.43;;;13.60;90.70;;;;;;964774;146;27309;-82
2021/12/24 11:01:43;;;;;;;6.10;5.00;;;13.50;90.70;;;;;;964733;146;27291;-82
2021/12/24 11:04:10;;;;;;;5.97;5.00;;;13.50;90.70;;;;;;962200;146;27341;-82
2021/12/24 11:06:36;;;;;;;7.93;5.27;;;13.50;90.70;;;;;;958474;146;27243;-82
2021/12/24 11:09:03;;;;;;;6.23;5.20;;;13.50;90.70;;;;;;957814;146;27280;-82
2021/12/24 11:11:35;;;;;;;6.90;4.83;;;13.50;90.50;;;;;;956083;146;27457;-82
2021/12/24 11:13:59;;;;;;;5.50;4.93;;;13.40;90.40;;;;;;960132;146;27279;-82
2021/12/24 11:16:26;;;;;;;6.77;4.63;;;13.40;90.40;;;;;;961650;146;27346;-82
2021/12/24 11:18:58;;;;;;;5.43;4.80;;;13.40;90.30;;;;;;956460;146;27391;-82
2021/12/24 11:21:24;;;;;;;6.70;5.20;;;13.30;90.30;;;;;;954948;147;27272;-82
2021/12/24 11:23:51;;;;;;;4.97;4.43;;;13.30;90.40;;;;;;960602;146;27785;-82
2021/12/24 11:26:20;;;;;;;6.55;5.15;;;13.30;90.40;;;;;;957482;146;27339;-82
2021/12/24 11:28:47;;;;;;;5.60;5.10;;;13.20;90.40;;;;;;954137;146;27251;-82
2021/12/24 11:31:13;;;;;;;5.83;4.70;;;13.20;90.50;;;;;;958210;146;27299;-82
2021/12/24 11:33:42;;;;;;;7.17;4.60;;;13.20;90.50;;;;;;957787;146;27383;-82
2021/12/24 11:36:06;;;;;;;5.80;5.00;;;13.20;90.60;;;;;;951617;144;27315;-82
2021/12/24 11:38:42;;;;;;;6.10;5.17;;;13.20;90.80;;;;;;957028;146;27234;-82
2021/12/24 11:41:11;;;;;;;7.70;6.00;;;13.20;90.90;;;;;;959633;146;27316;-83
2021/12/24 11:43:35;;;;;;;7.90;6.07;;;13.20;91.10;;;;;;956287;146;27322;-82
2021/12/24 11:46:01;;;;;;;6.07;5.47;;;13.20;91.20;;;;;;957566;146;27311;-82
2021/12/24 11:48:31;;;;;;;6.10;5.23;;;13.20;91.30;;;;;;958374;146;27307;-82
2021/12/24 11:50:55;;;;;;;7.08;5.42;;;13.30;91.50;;;;;;959762;146;27423;-82
2021/12/24 11:53:21;;;;;;;5.87;5.03;;;13.30;91.40;;;;;;963961;146;27304;-82
2021/12/24 11:55:48;;;;;;;6.70;6.00;;;13.40;91.40;;;;;;959770;146;27266;-82
2021/12/24 11:58:21;;;;;;;7.05;5.30;;;13.40;91.30;;;;;;957299;144;27343;-82
2021/12/24 12:00:47;;;;;;;7.10;5.50;;;13.40;91.20;;;;;;956837;146;27365;-82
2021/12/24 12:03:35;;;;;;;6.17;5.13;;;13.50;91.20;;;;;;958834;145;27440;-82
2021/12/24 12:06:02;;;;;;;6.57;5.90;;;13.50;91.20;;;;;;963712;146;27323;-82
2021/12/24 12:08:37;;;;;;;5.78;5.17;;;13.50;91.10;;;;;;958107;146;27276;-82
2021/12/24 12:11:04;;;;;;;7.70;5.43;;;13.50;91.10;;;;;;954860;147;27314;-82
2021/12/24 12:13:59;;;;;;;5.70;5.10;;;13.50;91.00;;;;;;957782;146;27283;-82
2021/12/24 12:16:29;;;;;;;6.53;4.73;;;13.50;91.00;;;;;;956644;145;27313;-83
2021/12/24 12:19:23;;;;;;;5.53;4.93;;;13.50;91.00;;;;;;957378;146;27408;-81
2021/12/24 12:24:58;;;;;;;5.87;4.80;;;13.50;91.00;;;;;;958742;145;27367;-81
2021/12/24 12:27:39;;;;;;;5.33;4.83;;;13.50;91.10;;;;;;959419;146;27294;-81
2021/12/24 12:30:27;;;;;;;5.70;5.17;;;13.50;91.20;;;;;;964956;146;27306;-81
2021/12/24 12:33:06;;;;;;;5.13;4.57;;;13.50;91.40;;;;;;959282;146;27349;-82
2021/12/24 12:35:38;;;;;;;5.87;5.27;;;13.60;91.60;;;;;;957422;146;27335;-82
2021/12/24 12:38:05;;;;;;;5.53;4.73;;;13.60;91.60;;;;;;959916;146;27372;-82
2021/12/24 12:40:32;;;;;;;5.58;5.08;;;13.70;91.50;;;;;;961261;146;27438;-82
2021/12/24 12:43:02;;;;;;;5.60;4.97;;;13.70;91.40;;;;;;956298;146;27306;-82
2021/12/24 12:45:35;;;;;;;5.12;4.62;;;13.80;91.30;;;;;;957979;146;27261;-82
2021/12/24 12:48:00;;;;;;;5.62;5.03;;;13.80;91.20;;;;;;960495;146;27389;-82
2021/12/24 12:50:29;;;;;;;5.13;4.67;;;13.80;91.10;;;;;;961398;146;27295;-82
2021/12/24 12:53:26;;;;;;;7.27;5.03;;;13.90;90.90;;;;;;958044;146;27781;-83
2021/12/24 12:56:08;;;;;;;5.30;4.78;;;13.90;90.90;;;;;;960013;146;27346;-83
2021/12/24 12:58:35;;;;;;;6.03;5.40;;;13.90;90.70;;;;;;952505;146;27353;-83
2021/12/24 13:01:04;;;;;;;5.03;4.63;;;13.90;90.70;;;;;;960501;146;27246;-82
2021/12/24 13:03:31;;;;;;;6.63;5.77;;;13.90;90.50;;;;;;958362;146;27311;-83
2021/12/24 13:06:00;;;;;;;6.10;5.50;;;13.90;90.50;;;;;;960129;146;27314;-82
2021/12/24 13:08:27;;;;;;;7.50;5.60;;;13.80;90.50;;;;;;961117;145;27330;-83
2021/12/24 13:11:12;;;;;;;9.23;6.37;;;13.80;90.50;;;;;;963535;146;27291;-82
2021/12/24 13:13:42;;;;;;;8.37;6.20;;;13.80;90.50;;;;;;959738;146;27294;-83
2021/12/24 13:16:17;;;;;;;5.92;5.33;;;13.80;90.50;;;;;;961149;146;27268;-82
2021/12/24 13:18:47;;;;;;;5.12;4.62;;;13.80;90.40;;;;;;955050;146;27327;-82
2021/12/24 13:23:37;;;;;;;5.30;4.77;;;13.80;90.40;;;;;;957794;146;27337;-83
2021/12/24 13:26:21;;;;;;;5.70;4.60;;;13.80;90.30;;;;;;959715;146;27388;-82
2021/12/24 13:28:57;;;;;;;5.00;4.50;;;13.70;90.10;;;;;;959441;146;27466;-83
2021/12/24 13:31:24;;;;;;;5.37;4.87;;;13.70;90.00;;;;;;960819;146;27388;-83
2021/12/24 13:33:50;;;;;;;4.70;4.30;;;13.60;89.90;;;;;;969877;146;27328;-82
2021/12/24 13:36:17;;;;;;;5.00;4.50;;;13.60;90.00;;;;;;960116;147;27455;-83
2021/12/24 13:38:44;;;;;;;4.77;4.30;;;13.50;90.00;;;;;;961487;147;27261;-82
2021/12/24 13:41:10;;;;;;;4.93;4.50;;;13.50;90.10;;;;;;963983;146;27408;-83
2021/12/24 13:43:37;;;;;;;4.60;4.20;;;13.50;90.20;;;;;;964313;146;27267;-82
2021/12/24 13:46:12;;;;;;;5.67;4.22;;;13.40;90.30;;;;;;962664;146;27770;-82
2021/12/24 13:48:57;;;;;;;5.70;4.13;;;13.40;90.30;;;;;;962875;146;27420;-83
2021/12/24 13:56:40;;;;;;;4.83;4.30;;;13.30;90.20;;;;;;956460;148;27292;-83
2021/12/24 13:59:06;;;;;;;4.13;3.83;;;13.30;90.20;;;;;;964618;147;27310;-82
2021/12/24 14:01:33;;;;;;;4.90;4.50;;;13.20;90.30;;;;;;957822;149;27434;-82
2021/12/24 14:03:59;;;;;;;5.77;4.37;;;13.20;90.40;;;;;;960442;147;27399;-82
2021/12/24 14:06:44;;;;;;;5.43;4.70;;;13.20;90.40;;;;;;962291;145;27300;-82
2021/12/24 14:09:22;;;;;;;6.80;6.10;;;13.10;90.40;;;;;;958919;148;27295;-82
2021/12/24 14:11:52;;;;;;;6.30;5.27;;;13.10;90.40;;;;;;964100;148;27375;-82
2021/12/24 14:14:25;;;;;;;5.20;4.70;;;13.10;90.40;;;;;;960604;147;27429;-82